createdAt,value
2022-09-11T00:01:14.249Z,100614.03
2022-09-11T00:03:42.758Z,100613.25
2022-09-11T00:06:27.526Z,100607.72
2022-09-11T00:09:01.476Z,100612.63
2022-09-11T00:11:31.034Z,100596.97
2022-09-11T00:13:57.778Z,100605.63
2022-09-11T00:16:28.048Z,100600.84
2022-09-11T00:18:56.463Z,100596.88
2022-09-11T00:21:23.371Z,100590.94
2022-09-11T00:23:51.589Z,100603.25
2022-09-11T00:26:18.679Z,100603.88
2022-09-11T00:28:45.757Z,100602.16
2022-09-11T00:31:15.522Z,100604.72
2022-09-11T00:33:42.210Z,100596.56
2022-09-11T00:36:16.010Z,100608.63
2022-09-11T00:38:43.124Z,100598.28
2022-09-11T00:41:19.386Z,100595.09
2022-09-11T00:43:55.314Z,100587.03
2022-09-11T00:46:25.264Z,100589.97
2022-09-11T00:48:52.421Z,100585.53
2022-09-11T00:51:25.808Z,100580.38
2022-09-11T00:53:54.687Z,100587.63
2022-09-11T00:56:22.671Z,100581.78
2022-09-11T00:58:51.037Z,100576.44
2022-09-11T01:01:17.550Z,100583.34
2022-09-11T01:03:44.271Z,100581.38
2022-09-11T01:06:11.066Z,100588.47
2022-09-11T01:08:38.555Z,100583.69
2022-09-11T01:11:37.471Z,100576.56
2022-09-11T01:14:25.492Z,100581.56
2022-09-11T01:16:54.945Z,100575.59
2022-09-11T01:19:27.384Z,100577.34
2022-09-11T01:22:18.712Z,100574.03
2022-09-11T01:25:33.476Z,100568.94
2022-09-11T01:28:06.302Z,100566.44
2022-09-11T01:30:41.463Z,100566.50
2022-09-11T01:33:32.942Z,100573.38
2022-09-11T01:36:30.376Z,100569.06
2022-09-11T01:39:14.009Z,100544.84
2022-09-11T01:42:01.698Z,100558.81
2022-09-11T01:44:39.418Z,100558.63
2022-09-11T01:47:08.056Z,100543.66
2022-09-11T01:49:50.570Z,100552.50
2022-09-11T01:52:35.205Z,100552.91
2022-09-11T01:55:08.271Z,100538.53
2022-09-11T01:57:47.774Z,100545.03
2022-09-11T02:00:14.671Z,100544.09
2022-09-11T02:02:50.695Z,100543.81
2022-09-11T02:05:23.130Z,100542.13
2022-09-11T02:08:06.508Z,100547.72
2022-09-11T02:10:40.315Z,100547.53
2022-09-11T02:13:19.153Z,100547.28
2022-09-11T02:15:50.697Z,100547.22
2022-09-11T02:18:24.923Z,100546.63
2022-09-11T02:20:52.913Z,100546.47
2022-09-11T02:23:20.081Z,100545.09
2022-09-11T02:25:51.049Z,100550.06
2022-09-11T02:28:17.622Z,100546.69
2022-09-11T02:30:45.619Z,100545.69
2022-09-11T02:33:34.249Z,100543.44
2022-09-11T02:36:28.986Z,100552.72
2022-09-11T02:39:22.000Z,100548.97
2022-09-11T02:41:57.292Z,100546.34
2022-09-11T02:44:36.554Z,100558.06
2022-09-11T02:47:11.362Z,100549.72
2022-09-11T02:50:18.751Z,100544.69
2022-09-11T02:53:02.025Z,100545.53
2022-09-11T02:56:00.803Z,100556.38
2022-09-11T02:58:33.408Z,100549.50
2022-09-11T03:01:04.042Z,100551.69
2022-09-11T03:03:38.815Z,100549.38
2022-09-11T03:06:05.835Z,100547.28
2022-09-11T03:08:32.354Z,100553.03
2022-09-11T03:10:58.811Z,100549.66
2022-09-11T03:13:27.105Z,100554.66
2022-09-11T03:15:54.372Z,100552.44
2022-09-11T03:18:23.166Z,100549.44
2022-09-11T03:20:52.354Z,100550.06
2022-09-11T03:23:18.860Z,100548.47
2022-09-11T03:25:45.287Z,100551.84
2022-09-11T03:28:11.765Z,100547.94
2022-09-11T03:30:38.190Z,100561.13
2022-09-11T03:33:05.087Z,100554.56
2022-09-11T03:35:31.560Z,100550.50
2022-09-11T03:37:58.063Z,100549.66
2022-09-11T03:40:24.554Z,100547.78
2022-09-11T03:45:42.820Z,100555.91
2022-09-11T03:48:10.645Z,100563.91
2022-09-11T03:50:38.248Z,100565.19
2022-09-11T03:53:05.064Z,100560.81
2022-09-11T03:55:31.828Z,100569.53
2022-09-11T03:57:59.810Z,100569.06
2022-09-11T04:00:26.720Z,100572.41
2022-09-11T04:02:53.846Z,100580.09
2022-09-11T04:05:23.279Z,100573.38
2022-09-11T04:07:49.855Z,100575.44
2022-09-11T04:10:16.318Z,100569.88
2022-09-11T04:12:42.769Z,100576.53
2022-09-11T04:15:09.356Z,100570.50
2022-09-11T04:17:37.020Z,100568.56
2022-09-11T04:20:04.599Z,100568.63
2022-09-11T04:22:31.110Z,100570.13
2022-09-11T04:24:57.535Z,100572.97
2022-09-11T04:27:24.505Z,100566.47
2022-09-11T04:29:52.668Z,100572.16
2022-09-11T04:32:19.406Z,100570.56
2022-09-11T04:34:45.878Z,100574.69
2022-09-11T04:37:12.387Z,100578.06
2022-09-11T04:39:38.900Z,100571.16
2022-09-11T04:42:05.439Z,100573.28
2022-09-11T04:44:32.876Z,100571.00
2022-09-11T04:46:59.550Z,100572.34
2022-09-11T04:49:26.055Z,100578.41
2022-09-11T04:51:52.692Z,100576.38
2022-09-11T04:54:24.102Z,100582.09
2022-09-11T04:56:50.858Z,100578.84
2022-09-11T04:59:19.726Z,100580.03
2022-09-11T05:01:46.391Z,100580.97
2022-09-11T05:04:14.440Z,100578.53
2022-09-11T05:06:43.024Z,100577.34
2022-09-11T05:09:10.311Z,100581.44
2022-09-11T05:11:39.136Z,100589.31
2022-09-11T05:14:06.220Z,100593.53
2022-09-11T05:16:34.426Z,100584.81
2022-09-11T05:19:01.625Z,100587.72
2022-09-11T05:21:29.408Z,100590.88
2022-09-11T05:23:58.005Z,100595.47
2022-09-11T05:26:26.536Z,100590.66
2022-09-11T05:29:01.321Z,100590.34
2022-09-11T05:31:29.441Z,100587.72
2022-09-11T05:33:56.682Z,100589.25
2022-09-11T05:36:23.982Z,100593.53
2022-09-11T05:38:50.734Z,100592.78
2022-09-11T05:41:17.464Z,100585.88
2022-09-11T05:43:44.342Z,100585.59
2022-09-11T05:46:13.627Z,100587.56
2022-09-11T05:48:40.519Z,100594.31
2022-09-11T05:51:11.506Z,100582.94
2022-09-11T05:53:38.065Z,100579.28
2022-09-11T05:56:15.534Z,100583.03
2022-09-11T05:58:44.493Z,100584.56
2022-09-11T06:01:36.096Z,100586.38
2022-09-11T06:04:03.887Z,100596.09
2022-09-11T06:06:31.130Z,100586.13
2022-09-11T06:08:57.979Z,100589.44
2022-09-11T06:11:24.418Z,100592.72
2022-09-11T06:13:51.096Z,100596.91
2022-09-11T06:16:20.541Z,100592.72
2022-09-11T06:19:06.371Z,100598.28
2022-09-11T06:21:33.837Z,100593.47
2022-09-11T06:24:00.932Z,100594.31
2022-09-11T06:26:29.567Z,100596.03
2022-09-11T06:28:57.365Z,100594.69
2022-09-11T06:31:27.554Z,100598.81
2022-09-11T06:33:54.561Z,100598.34
2022-09-11T06:36:24.644Z,100602.28
2022-09-11T06:38:56.421Z,100602.91
2022-09-11T06:41:24.479Z,100610.47
2022-09-11T06:43:52.201Z,100603.56
2022-09-11T06:46:20.988Z,100607.28
2022-09-11T06:48:49.040Z,100603.09
2022-09-11T06:51:17.744Z,100610.41
2022-09-11T06:53:45.060Z,100607.25
2022-09-11T06:56:13.616Z,100607.09
2022-09-11T06:58:48.286Z,100608.19
2022-09-11T07:01:21.933Z,100606.94
2022-09-11T07:03:58.649Z,100606.88
2022-09-11T07:06:29.365Z,100604.28
2022-09-11T07:09:04.069Z,100614.19
2022-09-11T07:11:33.279Z,100613.38
2022-09-11T07:14:15.000Z,100609.41
2022-09-11T07:16:49.184Z,100614.47
2022-09-11T07:19:23.353Z,100607.88
2022-09-11T07:21:57.706Z,100610.28
2022-09-11T07:24:32.890Z,100610.13
2022-09-11T07:27:06.124Z,100606.22
2022-09-11T07:29:38.929Z,100597.09
2022-09-11T07:32:17.544Z,100606.78
2022-09-11T07:34:52.911Z,100600.69
2022-09-11T07:37:25.945Z,100604.28
2022-09-11T07:39:57.902Z,100596.38
2022-09-11T07:42:34.327Z,100598.38
2022-09-11T07:45:03.871Z,100598.09
2022-09-11T07:47:36.789Z,100597.34
2022-09-11T07:50:10.587Z,100609.44
2022-09-11T07:52:37.391Z,100602.09
2022-09-11T07:55:05.325Z,100603.22
2022-09-11T07:57:32.806Z,100605.53
2022-09-11T08:00:04.158Z,100598.41
2022-09-11T08:02:31.831Z,100597.97
2022-09-11T08:04:59.303Z,100605.97
2022-09-11T08:07:31.599Z,100609.44
2022-09-11T08:10:26.184Z,100600.34
2022-09-11T08:12:59.634Z,100600.78
2022-09-11T08:15:35.818Z,100596.63
2022-09-11T08:18:10.420Z,100591.34
2022-09-11T08:20:47.921Z,100592.47
2022-09-11T08:23:18.961Z,100605.34
2022-09-11T08:25:58.161Z,100596.50
2022-09-11T08:28:34.054Z,100595.66
2022-09-11T08:31:08.918Z,100598.31
2022-09-11T08:33:40.241Z,100598.84
2022-09-11T08:36:17.814Z,100589.09
2022-09-11T08:38:49.487Z,100595.28
2022-09-11T08:41:35.013Z,100593.06
2022-09-11T08:44:24.513Z,100586.19
2022-09-11T08:47:06.329Z,100592.28
2022-09-11T08:49:45.641Z,100591.50
2022-09-11T08:52:18.500Z,100591.13
2022-09-11T08:54:48.840Z,100585.81
2022-09-11T08:57:33.836Z,100595.72
2022-09-11T09:00:15.182Z,100588.09
2022-09-11T09:03:02.965Z,100599.16
2022-09-11T09:05:54.827Z,100594.19
2022-09-11T09:08:49.999Z,100598.78
2022-09-11T09:11:44.444Z,100590.72
2022-09-11T09:14:53.357Z,100592.28
2022-09-11T09:17:39.929Z,100607.09
2022-09-11T09:20:33.318Z,100604.44
2022-09-11T09:23:21.182Z,100599.13
2022-09-11T09:25:49.038Z,100602.59
2022-09-11T09:28:35.117Z,100594.56
2022-09-11T09:31:06.071Z,100601.81
2022-09-11T09:33:41.583Z,100606.34
2022-09-11T09:36:16.400Z,100599.88
2022-09-11T09:38:49.206Z,100601.03
2022-09-11T09:41:52.278Z,100600.59
2022-09-11T09:44:28.314Z,100616.09
2022-09-11T09:46:56.079Z,100614.91
2022-09-11T09:49:29.998Z,100616.06
2022-09-11T09:52:03.528Z,100617.75
2022-09-11T09:54:31.244Z,100617.75
2022-09-11T09:57:05.295Z,100598.38
2022-09-11T09:59:42.634Z,100612.47
2022-09-11T10:02:09.397Z,100619.31
2022-09-11T10:04:35.971Z,100622.72
2022-09-11T10:07:12.309Z,100614.72
2022-09-11T10:09:46.762Z,100611.69
2022-09-11T10:12:18.172Z,100629.56
2022-09-11T10:14:52.673Z,100627.19
2022-09-11T10:17:21.371Z,100628.53
2022-09-11T10:19:47.890Z,100618.28
2022-09-11T10:22:31.522Z,100624.53
2022-09-11T10:25:13.487Z,100627.31
2022-09-11T10:27:44.071Z,100617.59
2022-09-11T10:30:31.559Z,100619.38
2022-09-11T10:33:03.351Z,100622.75
2022-09-11T10:35:31.779Z,100616.00
2022-09-11T10:38:01.094Z,100629.22
2022-09-11T10:40:27.608Z,100618.88
2022-09-11T10:42:54.470Z,100628.13
2022-09-11T10:45:22.115Z,100618.19
2022-09-11T10:47:48.593Z,100620.97
2022-09-11T10:50:18.061Z,100621.66
2022-09-11T10:53:18.183Z,100619.41
2022-09-11T10:55:58.077Z,100629.84
2022-09-11T10:58:29.405Z,100633.47
2022-09-11T11:00:56.694Z,100639.63
2022-09-11T11:03:26.756Z,100640.72
2022-09-11T11:06:01.398Z,100632.66
2022-09-11T11:08:50.959Z,100631.00
2022-09-11T11:11:56.153Z,100632.88
2022-09-11T11:14:44.091Z,100629.47
2022-09-11T11:17:55.324Z,100624.06
2022-09-11T11:20:30.156Z,100628.41
2022-09-11T11:23:04.868Z,100623.00
2022-09-11T11:26:11.798Z,100630.25
2022-09-11T11:28:45.721Z,100628.97
2022-09-11T11:31:31.483Z,100629.19
2022-09-11T11:34:09.902Z,100633.94
2022-09-11T11:36:42.925Z,100643.84
2022-09-11T11:39:27.314Z,100627.34
2022-09-11T11:42:10.096Z,100631.28
2022-09-11T11:45:00.365Z,100636.56
2022-09-11T11:47:31.173Z,100630.78
2022-09-11T11:50:11.934Z,100637.50
2022-09-11T11:52:44.008Z,100627.88
2022-09-11T11:55:24.923Z,100628.75
2022-09-11T11:58:08.253Z,100626.00
2022-09-11T12:01:57.334Z,100627.63
2022-09-11T12:05:15.212Z,100629.53
2022-09-11T12:07:55.132Z,100628.94
2022-09-11T12:10:37.955Z,100625.69
2022-09-11T12:13:28.297Z,100622.19
2022-09-11T12:16:19.102Z,100634.78
2022-09-11T12:19:05.808Z,100637.03
2022-09-11T12:21:37.640Z,100635.06
2022-09-11T12:24:03.985Z,100630.91
2022-09-11T12:26:32.169Z,100626.50
2022-09-11T12:29:39.387Z,100636.59
2022-09-11T12:32:18.229Z,100624.34
2022-09-11T12:34:45.254Z,100628.75
2022-09-11T12:37:22.694Z,100632.38
2022-09-11T12:39:55.245Z,100623.06
2022-09-11T12:42:25.361Z,100624.94
2022-09-11T12:44:51.825Z,100628.94
2022-09-11T12:47:21.858Z,100622.31
2022-09-11T12:50:15.539Z,100628.50
2022-09-11T12:52:44.646Z,100634.75
2022-09-11T12:55:31.486Z,100634.38
2022-09-11T12:58:02.571Z,100629.31
2022-09-11T13:00:43.529Z,100644.72
2022-09-11T13:03:18.418Z,100636.69
2022-09-11T13:05:53.098Z,100637.41
2022-09-11T13:11:36.123Z,100638.06
2022-09-11T13:14:03.218Z,100639.13
2022-09-11T13:16:36.920Z,100634.81
2022-09-11T13:19:20.804Z,100641.34
2022-09-11T13:21:56.606Z,100645.16
2022-09-11T13:24:25.600Z,100641.50
2022-09-11T13:27:05.797Z,100637.03
2022-09-11T13:29:37.401Z,100637.53
2022-09-11T13:32:14.436Z,100635.53
2022-09-11T13:34:45.153Z,100639.78
2022-09-11T13:37:14.561Z,100641.53
2022-09-11T13:39:43.315Z,100640.84
2022-09-11T13:42:17.929Z,100645.94
2022-09-11T13:44:47.209Z,100642.84
2022-09-11T13:47:23.790Z,100639.06
2022-09-11T13:49:53.388Z,100633.25
2022-09-11T13:52:25.443Z,100641.03
2022-09-11T13:54:53.399Z,100632.47
2022-09-11T13:57:21.816Z,100633.97
2022-09-11T14:00:28.510Z,100632.47
2022-09-11T14:02:55.979Z,100635.38
2022-09-11T14:05:26.020Z,100635.25
2022-09-11T14:08:21.578Z,100634.75
2022-09-11T14:10:59.675Z,100648.88
2022-09-11T14:13:35.531Z,100643.09
2022-09-11T14:16:04.954Z,100651.47
2022-09-11T14:18:43.679Z,100651.47
2022-09-11T14:21:16.185Z,100650.94
2022-09-11T14:23:48.319Z,100647.34
2022-09-11T14:26:16.919Z,100648.25
2022-09-11T14:29:00.925Z,100648.63
2022-09-11T14:31:37.399Z,100652.00
2022-09-11T14:34:15.574Z,100653.75
2022-09-11T14:36:50.037Z,100649.97
2022-09-11T14:39:22.566Z,100648.88
2022-09-11T14:41:49.134Z,100656.06
2022-09-11T14:44:19.009Z,100658.28
2022-09-11T14:46:45.513Z,100655.66
2022-09-11T14:49:12.881Z,100667.50
2022-09-11T14:51:40.976Z,100654.34
2022-09-11T14:54:13.756Z,100660.00
2022-09-11T14:56:40.620Z,100660.06
2022-09-11T14:59:07.183Z,100657.06
2022-09-11T15:01:34.265Z,100656.38
2022-09-11T15:04:01.814Z,100657.47
2022-09-11T15:06:28.256Z,100658.78
2022-09-11T15:08:54.823Z,100656.63
2022-09-11T15:11:21.278Z,100666.53
2022-09-11T15:14:11.289Z,100662.31
2022-09-11T15:16:34.795Z,100660.03
2022-09-11T15:19:01.243Z,100657.38
2022-09-11T15:21:27.903Z,100671.03
2022-09-11T15:23:55.419Z,100665.31
2022-09-11T15:26:21.875Z,100671.03
2022-09-11T15:28:53.295Z,100667.22
2022-09-11T15:31:20.217Z,100666.06
2022-09-11T15:33:53.121Z,100674.06
2022-09-11T15:36:22.562Z,100669.06
2022-09-11T15:38:55.138Z,100679.22
2022-09-11T15:41:22.392Z,100670.09
2022-09-11T15:43:50.556Z,100674.97
2022-09-11T15:46:22.574Z,100679.59
2022-09-11T15:48:49.792Z,100675.81
2022-09-11T15:51:18.501Z,100673.50
2022-09-11T15:53:45.244Z,100676.91
2022-09-11T15:56:15.032Z,100683.28
2022-09-11T15:58:44.501Z,100676.44
2022-09-11T16:01:21.860Z,100682.06
2022-09-11T16:03:52.382Z,100677.53
2022-09-11T16:06:19.971Z,100682.31
2022-09-11T16:08:47.903Z,100691.09
2022-09-11T16:11:16.709Z,100688.34
2022-09-11T16:13:44.005Z,100694.41
2022-09-11T16:16:10.715Z,100685.63
2022-09-11T16:18:38.329Z,100686.75
2022-09-11T16:21:06.615Z,100691.75
2022-09-11T16:23:35.133Z,100695.28
2022-09-11T16:26:06.871Z,100682.03
2022-09-11T16:28:34.868Z,100691.84
2022-09-11T16:31:02.508Z,100691.91
2022-09-11T16:33:31.039Z,100689.94
2022-09-11T16:36:03.045Z,100687.91
2022-09-11T16:38:29.575Z,100683.44
2022-09-11T16:41:08.201Z,100683.50
2022-09-11T16:43:38.869Z,100683.50
2022-09-11T16:46:06.497Z,100683.38
2022-09-11T16:48:34.497Z,100679.91
2022-09-11T16:51:01.992Z,100681.84
2022-09-11T16:53:31.517Z,100680.25
2022-09-11T16:55:58.081Z,100680.03
2022-09-11T16:58:24.653Z,100678.88
2022-09-11T17:00:51.203Z,100681.53
2022-09-11T17:03:17.776Z,100685.97
2022-09-11T17:05:51.299Z,100678.91
2022-09-11T17:08:18.139Z,100683.81
2022-09-11T17:10:46.265Z,100687.84
2022-09-11T17:13:13.149Z,100685.56
2022-09-11T17:15:43.593Z,100685.59
2022-09-11T17:18:11.110Z,100683.44
2022-09-11T17:20:38.099Z,100678.53
2022-09-11T17:23:06.468Z,100685.22
2022-09-11T17:25:35.093Z,100684.00
2022-09-11T17:28:01.684Z,100697.47
2022-09-11T17:30:28.245Z,100693.38
2022-09-11T17:32:54.915Z,100689.09
2022-09-11T17:35:21.487Z,100693.19
2022-09-11T17:37:48.090Z,100688.00
2022-09-11T17:40:18.433Z,100689.25
2022-09-11T17:42:46.532Z,100693.25
2022-09-11T17:45:15.745Z,100693.75
2022-09-11T17:47:43.111Z,100690.72
2022-09-11T17:50:10.773Z,100689.09
2022-09-11T17:52:37.578Z,100695.13
2022-09-11T17:55:05.164Z,100690.13
2022-09-11T17:57:32.362Z,100683.31
2022-09-11T18:00:06.434Z,100689.47
2022-09-11T18:02:34.599Z,100693.75
2022-09-11T18:05:01.164Z,100687.94
2022-09-11T18:07:28.063Z,100694.59
2022-09-11T18:09:56.516Z,100685.97
2022-09-11T18:12:28.342Z,100693.88
2022-09-11T18:14:58.707Z,100687.28
2022-09-11T18:17:27.515Z,100685.03
2022-09-11T18:19:54.802Z,100690.09
2022-09-11T18:22:22.536Z,100692.97
2022-09-11T18:24:53.263Z,100694.50
2022-09-11T18:27:25.948Z,100692.63
2022-09-11T18:29:52.384Z,100693.13
2022-09-11T18:32:19.936Z,100701.84
2022-09-11T18:34:48.340Z,100695.03
2022-09-11T18:37:17.404Z,100698.44
2022-09-11T18:39:44.739Z,100703.47
2022-09-11T18:42:11.330Z,100694.81
2022-09-11T18:44:39.972Z,100704.53
2022-09-11T18:47:08.912Z,100700.69
2022-09-11T18:49:38.505Z,100701.09
2022-09-11T18:52:05.183Z,100692.03
2022-09-11T18:54:32.504Z,100701.72
2022-09-11T18:57:00.213Z,100701.88
2022-09-11T18:59:26.874Z,100698.47
2022-09-11T19:01:53.808Z,100702.69
2022-09-11T19:04:21.029Z,100698.53
2022-09-11T19:06:47.631Z,100696.28
2022-09-11T19:09:14.682Z,100693.50
2022-09-11T19:11:41.908Z,100701.88
2022-09-11T19:14:19.685Z,100698.03
2022-09-11T19:16:47.871Z,100696.28
2022-09-11T19:19:14.367Z,100702.38
2022-09-11T19:21:40.942Z,100696.72
2022-09-11T19:24:07.953Z,100694.69
2022-09-11T19:26:41.828Z,100693.50
2022-09-11T19:29:10.428Z,100690.13
2022-09-11T19:31:39.637Z,100686.97
2022-09-11T19:34:06.996Z,100691.91
2022-09-11T19:36:35.424Z,100697.41
2022-09-11T19:39:02.861Z,100700.84
2022-09-11T19:41:31.500Z,100703.13
2022-09-11T19:44:00.571Z,100693.66
2022-09-11T19:46:28.137Z,100701.59
2022-09-11T19:49:00.453Z,100701.09
2022-09-11T19:51:29.150Z,100697.16
2022-09-11T19:54:00.216Z,100699.13
2022-09-11T19:56:27.595Z,100705.94
2022-09-11T19:58:54.376Z,100698.25
2022-09-11T20:01:22.787Z,100704.22
2022-09-11T20:03:50.296Z,100699.41
2022-09-11T20:06:18.601Z,100702.75
2022-09-11T20:08:46.835Z,100705.19
2022-09-11T20:11:15.814Z,100693.56
2022-09-11T20:13:42.744Z,100702.19
2022-09-11T20:16:11.915Z,100702.06
2022-09-11T20:18:38.516Z,100702.97
2022-09-11T20:21:07.413Z,100709.69
2022-09-11T20:23:35.716Z,100701.78
2022-09-11T20:26:17.333Z,100698.59
2022-09-11T20:28:44.962Z,100692.44
2022-09-11T20:31:31.747Z,100694.19
2022-09-11T20:34:00.502Z,100697.69
2022-09-11T20:36:30.015Z,100706.50
2022-09-11T20:39:00.079Z,100702.28
2022-09-11T20:41:31.509Z,100706.03
2022-09-11T20:44:00.495Z,100708.69
2022-09-11T20:46:29.697Z,100698.56
2022-09-11T20:49:00.494Z,100708.13
2022-09-11T20:51:27.398Z,100706.75
2022-09-11T20:53:55.271Z,100699.25
2022-09-11T20:56:24.121Z,100700.03
2022-09-11T20:58:51.524Z,100705.63
2022-09-11T21:01:21.453Z,100704.94
2022-09-11T21:03:53.120Z,100695.66
2022-09-11T21:06:25.372Z,100706.50
2022-09-11T21:09:12.773Z,100707.94
2022-09-11T21:11:42.193Z,100707.53
2022-09-11T21:14:09.450Z,100707.09
2022-09-11T21:16:35.982Z,100710.59
2022-09-11T21:19:02.952Z,100712.63
2022-09-11T21:21:29.863Z,100713.59
2022-09-11T21:23:57.863Z,100702.94
2022-09-11T21:26:26.306Z,100705.66
2022-09-11T21:28:52.879Z,100709.50
2022-09-11T21:31:19.743Z,100702.78
2022-09-11T21:33:46.270Z,100710.78
2022-09-11T21:36:12.790Z,100700.56
2022-09-11T21:38:39.427Z,100698.50
2022-09-11T21:41:07.877Z,100702.00
2022-09-11T21:43:35.413Z,100714.44
2022-09-11T21:46:02.367Z,100710.63
2022-09-11T21:48:31.315Z,100702.25
2022-09-11T21:51:08.371Z,100706.69
2022-09-11T21:53:34.889Z,100700.81
2022-09-11T21:56:01.549Z,100710.19
2022-09-11T21:58:28.132Z,100708.41
2022-09-11T22:00:54.660Z,100715.63
2022-09-11T22:03:21.191Z,100715.78
2022-09-11T22:05:49.217Z,100709.06
2022-09-11T22:08:18.438Z,100715.44
2022-09-11T22:10:47.258Z,100709.91
2022-09-11T22:13:14.413Z,100715.69
2022-09-11T22:15:46.624Z,100716.56
2022-09-11T22:18:13.593Z,100711.88
2022-09-11T22:20:41.464Z,100716.06
2022-09-11T22:23:08.909Z,100712.72
2022-09-11T22:25:37.155Z,100708.66
2022-09-11T22:28:06.866Z,100712.72
2022-09-11T22:30:33.555Z,100707.94
2022-09-11T22:33:00.533Z,100714.56
2022-09-11T22:35:27.474Z,100710.00
2022-09-11T22:37:53.916Z,100715.19
2022-09-11T22:40:20.429Z,100712.78
2022-09-11T22:42:47.605Z,100715.25
2022-09-11T22:45:14.087Z,100704.03
2022-09-11T22:47:40.620Z,100713.06
2022-09-11T22:50:07.983Z,100709.72
2022-09-11T22:52:34.586Z,100712.88
2022-09-11T22:55:01.156Z,100721.63
2022-09-11T22:57:29.254Z,100717.78
2022-09-11T22:59:56.136Z,100716.19
2022-09-11T23:02:22.624Z,100727.66
2022-09-11T23:05:08.969Z,100718.44
2022-09-11T23:07:35.429Z,100726.91
2022-09-11T23:10:02.006Z,100732.94
2022-09-11T23:12:28.991Z,100731.06
2022-09-11T23:14:55.601Z,100727.22
2022-09-11T23:17:22.031Z,100730.78
2022-09-11T23:19:48.770Z,100727.53
2022-09-11T23:22:15.263Z,100722.00
2022-09-11T23:24:41.732Z,100724.31
2022-09-11T23:27:08.262Z,100718.09
2022-09-11T23:29:34.925Z,100720.81
2022-09-11T23:32:01.602Z,100715.13
2022-09-11T23:34:28.179Z,100719.94
2022-09-11T23:36:54.623Z,100715.97
2022-09-11T23:39:21.077Z,100712.59
2022-09-11T23:41:47.544Z,100718.53
2022-09-11T23:44:14.098Z,100715.22
2022-09-11T23:46:40.594Z,100708.06
2022-09-11T23:49:07.420Z,100711.28
2022-09-11T23:51:34.135Z,100710.56
2022-09-11T23:54:00.899Z,100707.38
2022-09-11T23:56:30.092Z,100705.16
2022-09-11T23:58:56.655Z,100710.31
